sensor_id;sensor_type;location;lat;lon;timestamp;temperature;humidity
39033;DHT22;24794;51.982;5.878;2023-02-12T00:00:56;8.90;99.90
39033;DHT22;24794;51.982;5.878;2023-02-12T00:01:57;8.90;99.90
39033;DHT22;24794;51.982;5.878;2023-02-12T00:02:57;8.90;99.90
39033;DHT22;24794;51.982;5.878;2023-02-12T00:03:58;8.90;99.90
39033;DHT22;24794;51.982;5.878;2023-02-12T00:04:58;8.90;99.90
39033;DHT22;24794;51.982;5.878;2023-02-12T00:05:59;8.90;99.90
39033;DHT22;24794;51.982;5.878;2023-02-12T00:07:00;8.90;99.90
39033;DHT22;24794;51.982;5.878;2023-02-12T00:08:01;9.00;99.90
39033;DHT22;24794;51.982;5.878;2023-02-12T00:09:02;9.00;99.90
39033;DHT22;24794;51.982;5.878;2023-02-12T00:10:02;8.90;99.90
39033;DHT22;24794;51.982;5.878;2023-02-12T00:11:07;9.00;99.90
39033;DHT22;24794;51.982;5.878;2023-02-12T00:12:07;9.00;99.90
39033;DHT22;24794;51.982;5.878;2023-02-12T00:13:11;9.00;99.90
39033;DHT22;24794;51.982;5.878;2023-02-12T00:14:11;9.00;99.90
39033;DHT22;24794;51.982;5.878;2023-02-12T00:15:12;9.00;99.90
39033;DHT22;24794;51.982;5.878;2023-02-12T00:16:13;8.90;99.90
39033;DHT22;24794;51.982;5.878;2023-02-12T00:17:14;9.00;99.90
39033;DHT22;24794;51.982;5.878;2023-02-12T00:18:15;9.00;99.90
39033;DHT22;24794;51.982;5.878;2023-02-12T00:19:15;9.00;99.90
39033;DHT22;24794;51.982;5.878;2023-02-12T00:20:16;9.00;99.90
39033;DHT22;24794;51.982;5.878;2023-02-12T00:21:16;8.90;99.90
39033;DHT22;24794;51.982;5.878;2023-02-12T00:22:17;8.90;99.90
39033;DHT22;24794;51.982;5.878;2023-02-12T00:23:17;8.90;99.90
39033;DHT22;24794;51.982;5.878;2023-02-12T00:24:18;8.90;99.90
39033;DHT22;24794;51.982;5.878;2023-02-12T00:25:18;8.90;99.90
39033;DHT22;24794;51.982;5.878;2023-02-12T00:26:19;8.90;99.90
39033;DHT22;24794;51.982;5.878;2023-02-12T00:27:20;8.90;99.90
39033;DHT22;24794;51.982;5.878;2023-02-12T00:28:20;8.90;99.90
39033;DHT22;24794;51.982;5.878;2023-02-12T00:29:21;8.80;99.90
39033;DHT22;24794;51.982;5.878;2023-02-12T00:30:21;8.80;99.90
39033;DHT22;24794;51.982;5.878;2023-02-12T00:31:23;8.80;99.90
39033;DHT22;24794;51.982;5.878;2023-02-12T00:32:24;8.80;99.90
39033;DHT22;24794;51.982;5.878;2023-02-12T00:33:24;8.80;99.90
39033;DHT22;24794;51.982;5.878;2023-02-12T00:34:25;8.80;99.90
39033;DHT22;24794;51.982;5.878;2023-02-12T00:35:25;8.80;99.90
39033;DHT22;24794;51.982;5.878;2023-02-12T00:36:27;8.80;99.90
39033;DHT22;24794;51.982;5.878;2023-02-12T00:37:28;8.70;99.90
39033;DHT22;24794;51.982;5.878;2023-02-12T00:38:28;8.70;99.90
39033;DHT22;24794;51.982;5.878;2023-02-12T00:39:29;8.70;99.90
39033;DHT22;24794;51.982;5.878;2023-02-12T00:40:29;8.70;99.90
39033;DHT22;24794;51.982;5.878;2023-02-12T00:41:30;8.70;99.90
39033;DHT22;24794;51.982;5.878;2023-02-12T00:42:30;8.70;99.90
39033;DHT22;24794;51.982;5.878;2023-02-12T00:43:31;8.70;99.90
39033;DHT22;24794;51.982;5.878;2023-02-12T00:44:31;8.60;99.90
39033;DHT22;24794;51.982;5.878;2023-02-12T00:45:32;8.70;99.90
39033;DHT22;24794;51.982;5.878;2023-02-12T00:46:32;8.60;99.90
39033;DHT22;24794;51.982;5.878;2023-02-12T00:47:33;8.70;99.90
39033;DHT22;24794;51.982;5.878;2023-02-12T00:48:34;8.60;99.90
39033;DHT22;24794;51.982;5.878;2023-02-12T00:49:35;8.70;99.90
39033;DHT22;24794;51.982;5.878;2023-02-12T00:50:35;8.60;99.90
39033;DHT22;24794;51.982;5.878;2023-02-12T00:51:36;8.60;99.90
39033;DHT22;24794;51.982;5.878;2023-02-12T00:52:36;8.60;99.90
39033;DHT22;24794;51.982;5.878;2023-02-12T00:53:37;8.60;99.90
39033;DHT22;24794;51.982;5.878;2023-02-12T00:54:37;8.60;99.90
39033;DHT22;24794;51.982;5.878;2023-02-12T00:55:38;8.70;99.90
39033;DHT22;24794;51.982;5.878;2023-02-12T00:56:38;8.70;99.90
39033;DHT22;24794;51.982;5.878;2023-02-12T00:57:39;8.70;99.90
39033;DHT22;24794;51.982;5.878;2023-02-12T00:58:39;8.70;99.90
39033;DHT22;24794;51.982;5.878;2023-02-12T00:59:40;8.70;99.90
39033;DHT22;24794;51.982;5.878;2023-02-12T01:00:42;8.70;99.90
39033;DHT22;24794;51.982;5.878;2023-02-12T01:01:42;8.70;99.90
39033;DHT22;24794;51.982;5.878;2023-02-12T01:02:43;8.70;99.90
39033;DHT22;24794;51.982;5.878;2023-02-12T01:03:43;8.70;99.90
39033;DHT22;24794;51.982;5.878;2023-02-12T01:04:44;8.70;99.90
39033;DHT22;24794;51.982;5.878;2023-02-12T01:05:44;8.70;99.90
39033;DHT22;24794;51.982;5.878;2023-02-12T01:06:45;8.70;99.90
39033;DHT22;24794;51.982;5.878;2023-02-12T01:07:49;8.60;99.90
39033;DHT22;24794;51.982;5.878;2023-02-12T01:08:50;8.60;99.90
39033;DHT22;24794;51.982;5.878;2023-02-12T01:09:51;8.60;99.90
39033;DHT22;24794;51.982;5.878;2023-02-12T01:10:59;8.60;99.90
39033;DHT22;24794;51.982;5.878;2023-02-12T01:12:00;8.60;99.90
39033;DHT22;24794;51.982;5.878;2023-02-12T01:13:00;8.50;99.90
39033;DHT22;24794;51.982;5.878;2023-02-12T01:14:01;8.60;99.90
39033;DHT22;24794;51.982;5.878;2023-02-12T01:15:02;8.50;99.90
39033;DHT22;24794;51.982;5.878;2023-02-12T01:17:03;8.50;99.90
39033;DHT22;24794;51.982;5.878;2023-02-12T01:18:03;8.50;99.90
39033;DHT22;24794;51.982;5.878;2023-02-12T01:19:03;8.50;99.90
39033;DHT22;24794;51.982;5.878;2023-02-12T01:20:05;8.50;99.90
39033;DHT22;24794;51.982;5.878;2023-02-12T01:21:07;8.50;99.90
39033;DHT22;24794;51.982;5.878;2023-02-12T01:22:08;8.50;99.90
39033;DHT22;24794;51.982;5.878;2023-02-12T01:23:08;8.50;99.90
39033;DHT22;24794;51.982;5.878;2023-02-12T01:24:09;8.50;99.90
39033;DHT22;24794;51.982;5.878;2023-02-12T01:25:09;8.50;99.90
39033;DHT22;24794;51.982;5.878;2023-02-12T01:26:13;8.50;99.90
39033;DHT22;24794;51.982;5.878;2023-02-12T01:27:14;8.50;99.90
39033;DHT22;24794;51.982;5.878;2023-02-12T01:28:14;8.50;99.90
39033;DHT22;24794;51.982;5.878;2023-02-12T01:29:15;8.50;99.90
39033;DHT22;24794;51.982;5.878;2023-02-12T01:30:15;8.50;99.90
39033;DHT22;24794;51.982;5.878;2023-02-12T01:31:20;8.50;99.90
39033;DHT22;24794;51.982;5.878;2023-02-12T01:32:21;8.60;99.90
39033;DHT22;24794;51.982;5.878;2023-02-12T01:33:21;8.60;99.90
39033;DHT22;24794;51.982;5.878;2023-02-12T01:34:22;8.60;99.90
39033;DHT22;24794;51.982;5.878;2023-02-12T01:35:23;8.60;99.90
39033;DHT22;24794;51.982;5.878;2023-02-12T01:36:23;8.60;99.90
39033;DHT22;24794;51.982;5.878;2023-02-12T01:37:24;8.60;99.90
39033;DHT22;24794;51.982;5.878;2023-02-12T01:38:24;8.60;99.90
39033;DHT22;24794;51.982;5.878;2023-02-12T01:39:25;8.60;99.90
39033;DHT22;24794;51.982;5.878;2023-02-12T01:40:25;8.60;99.90
39033;DHT22;24794;51.982;5.878;2023-02-12T01:41:27;8.60;99.90
39033;DHT22;24794;51.982;5.878;2023-02-12T01:42:28;8.70;99.90
39033;DHT22;24794;51.982;5.878;2023-02-12T01:43:28;8.60;99.90
39033;DHT22;24794;51.982;5.878;2023-02-12T01:44:29;8.60;99.90
39033;DHT22;24794;51.982;5.878;2023-02-12T01:45:37;8.60;99.90
39033;DHT22;24794;51.982;5.878;2023-02-12T01:46:43;8.60;99.90
39033;DHT22;24794;51.982;5.878;2023-02-12T01:47:44;8.60;99.90
39033;DHT22;24794;51.982;5.878;2023-02-12T01:48:45;8.60;99.90
39033;DHT22;24794;51.982;5.878;2023-02-12T01:49:46;8.60;99.90
39033;DHT22;24794;51.982;5.878;2023-02-12T01:50:47;8.60;99.90
39033;DHT22;24794;51.982;5.878;2023-02-12T01:51:50;8.60;99.90
39033;DHT22;24794;51.982;5.878;2023-02-12T01:52:52;8.60;99.90
39033;DHT22;24794;51.982;5.878;2023-02-12T01:53:55;8.50;99.90
39033;DHT22;24794;51.982;5.878;2023-02-12T01:54:57;8.50;99.90
39033;DHT22;24794;51.982;5.878;2023-02-12T01:56:00;8.50;99.90
39033;DHT22;24794;51.982;5.878;2023-02-12T01:57:02;8.60;99.90
39033;DHT22;24794;51.982;5.878;2023-02-12T01:58:04;8.50;99.90
39033;DHT22;24794;51.982;5.878;2023-02-12T01:59:05;8.50;99.90
39033;DHT22;24794;51.982;5.878;2023-02-12T02:00:07;8.50;99.90
39033;DHT22;24794;51.982;5.878;2023-02-12T02:01:10;8.50;99.90
39033;DHT22;24794;51.982;5.878;2023-02-12T02:02:11;8.50;99.90
39033;DHT22;24794;51.982;5.878;2023-02-12T02:03:12;8.50;99.90
39033;DHT22;24794;51.982;5.878;2023-02-12T02:04:14;8.60;99.90
39033;DHT22;24794;51.982;5.878;2023-02-12T02:05:17;8.60;99.90
39033;DHT22;24794;51.982;5.878;2023-02-12T02:06:22;8.60;99.90
39033;DHT22;24794;51.982;5.878;2023-02-12T02:07:25;8.60;99.90
39033;DHT22;24794;51.982;5.878;2023-02-12T02:08:25;8.50;99.90
39033;DHT22;24794;51.982;5.878;2023-02-12T02:09:26;8.60;99.90
39033;DHT22;24794;51.982;5.878;2023-02-12T02:10:28;8.50;99.90
39033;DHT22;24794;51.982;5.878;2023-02-12T02:11:28;8.50;99.90
39033;DHT22;24794;51.982;5.878;2023-02-12T02:12:47;8.50;99.90
39033;DHT22;24794;51.982;5.878;2023-02-12T02:14:06;8.50;99.90
39033;DHT22;24794;51.982;5.878;2023-02-12T02:15:26;8.50;99.90
39033;DHT22;24794;51.982;5.878;2023-02-12T02:16:29;8.50;99.90
39033;DHT22;24794;51.982;5.878;2023-02-12T02:18:52;8.50;99.90
39033;DHT22;24794;51.982;5.878;2023-02-12T02:20:01;8.50;99.90
39033;DHT22;24794;51.982;5.878;2023-02-12T02:21:17;8.50;99.90
39033;DHT22;24794;51.982;5.878;2023-02-12T02:22:33;8.50;99.90
39033;DHT22;24794;51.982;5.878;2023-02-12T02:29:43;8.40;99.90
39033;DHT22;24794;51.982;5.878;2023-02-12T02:31:47;8.40;99.90
39033;DHT22;24794;51.982;5.878;2023-02-12T02:35:03;8.40;99.90
39033;DHT22;24794;51.982;5.878;2023-02-12T02:37:31;8.40;99.90
39033;DHT22;24794;51.982;5.878;2023-02-12T02:38:38;8.40;99.90
39033;DHT22;24794;51.982;5.878;2023-02-12T02:39:47;8.40;99.90
39033;DHT22;24794;51.982;5.878;2023-02-12T02:43:15;8.40;99.90
39033;DHT22;24794;51.982;5.878;2023-02-12T02:44:19;8.40;99.90
39033;DHT22;24794;51.982;5.878;2023-02-12T02:45:24;8.40;99.90
39033;DHT22;24794;51.982;5.878;2023-02-12T02:47:30;8.40;99.90
39033;DHT22;24794;51.982;5.878;2023-02-12T02:48:33;8.40;99.90
39033;DHT22;24794;51.982;5.878;2023-02-12T02:49:56;8.40;99.90
39033;DHT22;24794;51.982;5.878;2023-02-12T02:50:56;8.40;99.90
39033;DHT22;24794;51.982;5.878;2023-02-12T02:52:02;8.40;99.90
39033;DHT22;24794;51.982;5.878;2023-02-12T02:53:09;8.30;99.90
39033;DHT22;24794;51.982;5.878;2023-02-12T02:54:12;8.30;99.90
39033;DHT22;24794;51.982;5.878;2023-02-12T02:55:15;8.30;99.90
39033;DHT22;24794;51.982;5.878;2023-02-12T02:56:16;8.30;99.90
39033;DHT22;24794;51.982;5.878;2023-02-12T02:58:19;8.30;99.90
39033;DHT22;24794;51.982;5.878;2023-02-12T02:59:23;8.30;99.90
39033;DHT22;24794;51.982;5.878;2023-02-12T03:00:31;8.30;99.90
39033;DHT22;24794;51.982;5.878;2023-02-12T03:01:34;8.30;99.90
39033;DHT22;24794;51.982;5.878;2023-02-12T03:02:36;8.20;99.90
39033;DHT22;24794;51.982;5.878;2023-02-12T03:03:45;8.30;99.90
39033;DHT22;24794;51.982;5.878;2023-02-12T03:04:50;8.30;99.90
39033;DHT22;24794;51.982;5.878;2023-02-12T03:05:51;8.30;99.90
39033;DHT22;24794;51.982;5.878;2023-02-12T03:06:58;8.30;99.90
39033;DHT22;24794;51.982;5.878;2023-02-12T03:08:33;8.30;99.90
39033;DHT22;24794;51.982;5.878;2023-02-12T03:09:27;8.30;99.90
39033;DHT22;24794;51.982;5.878;2023-02-12T03:10:32;8.30;99.90
39033;DHT22;24794;51.982;5.878;2023-02-12T03:11:33;8.30;99.90
39033;DHT22;24794;51.982;5.878;2023-02-12T03:15:14;8.30;99.90
39033;DHT22;24794;51.982;5.878;2023-02-12T03:16:25;8.40;99.90
39033;DHT22;24794;51.982;5.878;2023-02-12T03:17:30;8.30;99.90
39033;DHT22;24794;51.982;5.878;2023-02-12T03:18:33;8.30;99.90
39033;DHT22;24794;51.982;5.878;2023-02-12T03:19:36;8.30;99.90
39033;DHT22;24794;51.982;5.878;2023-02-12T03:20:43;8.30;99.90
39033;DHT22;24794;51.982;5.878;2023-02-12T03:22:47;8.20;99.90
39033;DHT22;24794;51.982;5.878;2023-02-12T03:24:53;8.20;99.90
39033;DHT22;24794;51.982;5.878;2023-02-12T03:25:43;8.20;99.90
39033;DHT22;24794;51.982;5.878;2023-02-12T03:26:45;8.20;99.90
39033;DHT22;24794;51.982;5.878;2023-02-12T03:27:53;8.20;99.90
39033;DHT22;24794;51.982;5.878;2023-02-12T03:28:56;8.10;99.90
39033;DHT22;24794;51.982;5.878;2023-02-12T03:29:56;8.20;99.90
39033;DHT22;24794;51.982;5.878;2023-02-12T03:31:09;8.20;99.90
39033;DHT22;24794;51.982;5.878;2023-02-12T03:32:32;8.20;99.90
39033;DHT22;24794;51.982;5.878;2023-02-12T03:34:49;8.20;99.90
39033;DHT22;24794;51.982;5.878;2023-02-12T03:38:55;8.20;99.90
39033;DHT22;24794;51.982;5.878;2023-02-12T03:39:58;8.20;99.90
39033;DHT22;24794;51.982;5.878;2023-02-12T03:44:21;8.20;99.90
39033;DHT22;24794;51.982;5.878;2023-02-12T03:46:27;8.20;99.90
39033;DHT22;24794;51.982;5.878;2023-02-12T03:47:47;8.10;99.90
39033;DHT22;24794;51.982;5.878;2023-02-12T03:51:09;8.10;99.90
39033;DHT22;24794;51.982;5.878;2023-02-12T03:52:13;8.10;99.90
39033;DHT22;24794;51.982;5.878;2023-02-12T03:53:13;8.10;99.90
39033;DHT22;24794;51.982;5.878;2023-02-12T03:54:15;8.10;99.90
39033;DHT22;24794;51.982;5.878;2023-02-12T03:55:16;8.20;99.90
39033;DHT22;24794;51.982;5.878;2023-02-12T03:56:18;8.10;99.90
39033;DHT22;24794;51.982;5.878;2023-02-12T03:57:20;8.10;99.90
39033;DHT22;24794;51.982;5.878;2023-02-12T03:58:22;8.10;99.90
39033;DHT22;24794;51.982;5.878;2023-02-12T03:59:24;8.10;99.90
39033;DHT22;24794;51.982;5.878;2023-02-12T04:00:25;8.10;99.90
39033;DHT22;24794;51.982;5.878;2023-02-12T04:01:26;8.10;99.90
39033;DHT22;24794;51.982;5.878;2023-02-12T04:02:26;8.10;99.90
39033;DHT22;24794;51.982;5.878;2023-02-12T04:03:28;8.10;99.90
39033;DHT22;24794;51.982;5.878;2023-02-12T04:04:28;8.10;99.90
39033;DHT22;24794;51.982;5.878;2023-02-12T04:05:29;8.10;99.90
39033;DHT22;24794;51.982;5.878;2023-02-12T04:06:30;8.10;99.90
39033;DHT22;24794;51.982;5.878;2023-02-12T04:07:31;8.10;99.90
39033;DHT22;24794;51.982;5.878;2023-02-12T04:08:31;8.10;99.90
39033;DHT22;24794;51.982;5.878;2023-02-12T04:09:32;8.10;99.90
39033;DHT22;24794;51.982;5.878;2023-02-12T04:15:15;8.10;99.90
39033;DHT22;24794;51.982;5.878;2023-02-12T04:17:26;8.10;99.90
39033;DHT22;24794;51.982;5.878;2023-02-12T04:18:42;8.10;99.90
39033;DHT22;24794;51.982;5.878;2023-02-12T04:24:31;8.20;99.90
39033;DHT22;24794;51.982;5.878;2023-02-12T04:30:04;8.20;99.90
39033;DHT22;24794;51.982;5.878;2023-02-12T04:33:27;8.20;99.90
39033;DHT22;24794;51.982;5.878;2023-02-12T04:34:32;8.30;99.90
39033;DHT22;24794;51.982;5.878;2023-02-12T04:35:35;8.30;99.90
39033;DHT22;24794;51.982;5.878;2023-02-12T04:36:41;8.30;99.90
39033;DHT22;24794;51.982;5.878;2023-02-12T04:37:45;8.30;99.90
39033;DHT22;24794;51.982;5.878;2023-02-12T04:38:50;8.30;99.90
39033;DHT22;24794;51.982;5.878;2023-02-12T04:39:51;8.30;99.90
39033;DHT22;24794;51.982;5.878;2023-02-12T04:40:52;8.40;99.90
39033;DHT22;24794;51.982;5.878;2023-02-12T04:41:53;8.40;99.90
39033;DHT22;24794;51.982;5.878;2023-02-12T04:42:53;8.40;99.90
39033;DHT22;24794;51.982;5.878;2023-02-12T04:43:54;8.40;99.90
39033;DHT22;24794;51.982;5.878;2023-02-12T04:44:54;8.40;99.90
39033;DHT22;24794;51.982;5.878;2023-02-12T04:45:55;8.40;99.90
39033;DHT22;24794;51.982;5.878;2023-02-12T04:46:56;8.40;99.90
39033;DHT22;24794;51.982;5.878;2023-02-12T04:47:56;8.40;99.90
39033;DHT22;24794;51.982;5.878;2023-02-12T04:48:57;8.50;99.90
39033;DHT22;24794;51.982;5.878;2023-02-12T04:49:58;8.40;99.90
39033;DHT22;24794;51.982;5.878;2023-02-12T04:50:58;8.40;99.90
39033;DHT22;24794;51.982;5.878;2023-02-12T04:51:59;8.50;99.90
39033;DHT22;24794;51.982;5.878;2023-02-12T04:52:59;8.50;99.90
39033;DHT22;24794;51.982;5.878;2023-02-12T04:54:00;8.40;99.90
39033;DHT22;24794;51.982;5.878;2023-02-12T04:55:00;8.50;99.90
39033;DHT22;24794;51.982;5.878;2023-02-12T04:56:01;8.50;99.90
39033;DHT22;24794;51.982;5.878;2023-02-12T04:57:01;8.50;99.90
39033;DHT22;24794;51.982;5.878;2023-02-12T04:58:02;8.40;99.90
39033;DHT22;24794;51.982;5.878;2023-02-12T04:59:03;8.40;99.90
39033;DHT22;24794;51.982;5.878;2023-02-12T05:00:04;8.40;99.90
39033;DHT22;24794;51.982;5.878;2023-02-12T05:01:05;8.40;99.90
39033;DHT22;24794;51.982;5.878;2023-02-12T05:02:06;8.40;99.90
39033;DHT22;24794;51.982;5.878;2023-02-12T05:03:07;8.40;99.90
39033;DHT22;24794;51.982;5.878;2023-02-12T05:04:07;8.40;99.90
39033;DHT22;24794;51.982;5.878;2023-02-12T05:05:09;8.40;99.90
39033;DHT22;24794;51.982;5.878;2023-02-12T05:06:10;8.40;99.90
39033;DHT22;24794;51.982;5.878;2023-02-12T05:07:10;8.40;99.90
39033;DHT22;24794;51.982;5.878;2023-02-12T05:08:11;8.40;99.90
39033;DHT22;24794;51.982;5.878;2023-02-12T05:09:15;8.30;99.90
39033;DHT22;24794;51.982;5.878;2023-02-12T05:10:16;8.30;99.90
39033;DHT22;24794;51.982;5.878;2023-02-12T05:11:16;8.30;99.90
39033;DHT22;24794;51.982;5.878;2023-02-12T05:12:17;8.30;99.90
39033;DHT22;24794;51.982;5.878;2023-02-12T05:13:17;8.30;99.90
39033;DHT22;24794;51.982;5.878;2023-02-12T05:14:18;8.30;99.90
39033;DHT22;24794;51.982;5.878;2023-02-12T05:15:18;8.40;99.90
39033;DHT22;24794;51.982;5.878;2023-02-12T05:16:19;8.30;99.90
39033;DHT22;24794;51.982;5.878;2023-02-12T05:17:21;8.30;99.90
39033;DHT22;24794;51.982;5.878;2023-02-12T05:18:21;8.40;99.90
39033;DHT22;24794;51.982;5.878;2023-02-12T05:19:22;8.30;99.90
39033;DHT22;24794;51.982;5.878;2023-02-12T05:20:22;8.40;99.90
39033;DHT22;24794;51.982;5.878;2023-02-12T05:21:23;8.40;99.90
39033;DHT22;24794;51.982;5.878;2023-02-12T05:22:23;8.30;99.90
39033;DHT22;24794;51.982;5.878;2023-02-12T05:23:31;8.40;99.90
39033;DHT22;24794;51.982;5.878;2023-02-12T05:24:31;8.40;99.90
39033;DHT22;24794;51.982;5.878;2023-02-12T05:25:32;8.40;99.90
39033;DHT22;24794;51.982;5.878;2023-02-12T05:26:32;8.40;99.90
39033;DHT22;24794;51.982;5.878;2023-02-12T05:27:33;8.50;99.90
39033;DHT22;24794;51.982;5.878;2023-02-12T05:28:33;8.40;99.90
39033;DHT22;24794;51.982;5.878;2023-02-12T05:29:34;8.40;99.90
39033;DHT22;24794;51.982;5.878;2023-02-12T05:30:35;8.50;99.90
39033;DHT22;24794;51.982;5.878;2023-02-12T05:31:35;8.50;99.90
39033;DHT22;24794;51.982;5.878;2023-02-12T05:32:36;8.50;99.90
39033;DHT22;24794;51.982;5.878;2023-02-12T05:33:37;8.50;99.90
39033;DHT22;24794;51.982;5.878;2023-02-12T05:34:37;8.50;99.90
39033;DHT22;24794;51.982;5.878;2023-02-12T05:35:38;8.50;99.90
39033;DHT22;24794;51.982;5.878;2023-02-12T05:36:38;8.50;99.90
39033;DHT22;24794;51.982;5.878;2023-02-12T05:37:39;8.40;99.90
39033;DHT22;24794;51.982;5.878;2023-02-12T05:38:40;8.40;99.90
39033;DHT22;24794;51.982;5.878;2023-02-12T05:39:40;8.40;99.90
39033;DHT22;24794;51.982;5.878;2023-02-12T05:40:41;8.50;99.90
39033;DHT22;24794;51.982;5.878;2023-02-12T05:41:42;8.40;99.90
39033;DHT22;24794;51.982;5.878;2023-02-12T05:42:42;8.40;99.90
39033;DHT22;24794;51.982;5.878;2023-02-12T05:43:43;8.40;99.90
39033;DHT22;24794;51.982;5.878;2023-02-12T05:44:43;8.40;99.90
39033;DHT22;24794;51.982;5.878;2023-02-12T05:45:44;8.40;99.90
39033;DHT22;24794;51.982;5.878;2023-02-12T05:46:44;8.30;99.90
39033;DHT22;24794;51.982;5.878;2023-02-12T05:47:45;8.40;99.90
39033;DHT22;24794;51.982;5.878;2023-02-12T05:48:45;8.30;99.90
39033;DHT22;24794;51.982;5.878;2023-02-12T05:49:46;8.30;99.90
39033;DHT22;24794;51.982;5.878;2023-02-12T05:50:46;8.30;99.90
39033;DHT22;24794;51.982;5.878;2023-02-12T05:51:47;8.30;99.90
39033;DHT22;24794;51.982;5.878;2023-02-12T05:52:48;8.30;99.90
39033;DHT22;24794;51.982;5.878;2023-02-12T05:53:49;8.30;99.90
39033;DHT22;24794;51.982;5.878;2023-02-12T05:54:50;8.40;99.90
39033;DHT22;24794;51.982;5.878;2023-02-12T05:55:50;8.40;99.90
39033;DHT22;24794;51.982;5.878;2023-02-12T05:56:51;8.40;99.90
39033;DHT22;24794;51.982;5.878;2023-02-12T05:57:51;8.40;99.90
39033;DHT22;24794;51.982;5.878;2023-02-12T05:58:59;8.40;99.90
39033;DHT22;24794;51.982;5.878;2023-02-12T06:00:02;8.40;99.90
39033;DHT22;24794;51.982;5.878;2023-02-12T06:01:07;8.40;99.90
39033;DHT22;24794;51.982;5.878;2023-02-12T06:02:08;8.50;99.90
39033;DHT22;24794;51.982;5.878;2023-02-12T06:03:09;8.50;99.90
39033;DHT22;24794;51.982;5.878;2023-02-12T06:04:12;8.40;99.90
39033;DHT22;24794;51.982;5.878;2023-02-12T06:05:13;8.40;99.90
39033;DHT22;24794;51.982;5.878;2023-02-12T06:06:13;8.40;99.90
39033;DHT22;24794;51.982;5.878;2023-02-12T06:07:14;8.40;99.90
39033;DHT22;24794;51.982;5.878;2023-02-12T06:08:14;8.50;99.90
39033;DHT22;24794;51.982;5.878;2023-02-12T06:09:15;8.40;99.90
39033;DHT22;24794;51.982;5.878;2023-02-12T06:10:15;8.40;99.90
39033;DHT22;24794;51.982;5.878;2023-02-12T06:11:16;8.40;99.90
39033;DHT22;24794;51.982;5.878;2023-02-12T06:12:17;8.50;99.90
39033;DHT22;24794;51.982;5.878;2023-02-12T06:13:17;8.40;99.90
39033;DHT22;24794;51.982;5.878;2023-02-12T06:14:18;8.40;99.90
39033;DHT22;24794;51.982;5.878;2023-02-12T06:15:19;8.40;99.90
39033;DHT22;24794;51.982;5.878;2023-02-12T06:16:21;8.40;99.90
39033;DHT22;24794;51.982;5.878;2023-02-12T06:17:21;8.40;99.90
39033;DHT22;24794;51.982;5.878;2023-02-12T06:18:24;8.40;99.90
39033;DHT22;24794;51.982;5.878;2023-02-12T06:19:25;8.40;99.90
39033;DHT22;24794;51.982;5.878;2023-02-12T06:20:26;8.40;99.90
39033;DHT22;24794;51.982;5.878;2023-02-12T06:21:26;8.40;99.90
39033;DHT22;24794;51.982;5.878;2023-02-12T06:22:27;8.30;99.90
39033;DHT22;24794;51.982;5.878;2023-02-12T06:23:27;8.40;99.90
39033;DHT22;24794;51.982;5.878;2023-02-12T06:24:28;8.30;99.90
39033;DHT22;24794;51.982;5.878;2023-02-12T06:25:28;8.30;99.90
39033;DHT22;24794;51.982;5.878;2023-02-12T06:26:29;8.40;99.90
39033;DHT22;24794;51.982;5.878;2023-02-12T06:27:29;8.40;99.90
39033;DHT22;24794;51.982;5.878;2023-02-12T06:28:30;8.40;99.90
39033;DHT22;24794;51.982;5.878;2023-02-12T06:29:30;8.40;99.90
39033;DHT22;24794;51.982;5.878;2023-02-12T06:30:32;8.40;99.90
39033;DHT22;24794;51.982;5.878;2023-02-12T06:31:34;8.40;99.90
39033;DHT22;24794;51.982;5.878;2023-02-12T06:32:35;8.30;99.90
39033;DHT22;24794;51.982;5.878;2023-02-12T06:33:35;8.30;99.90
39033;DHT22;24794;51.982;5.878;2023-02-12T06:34:36;8.30;99.90
39033;DHT22;24794;51.982;5.878;2023-02-12T06:35:36;8.30;99.90
39033;DHT22;24794;51.982;5.878;2023-02-12T06:36:38;8.30;99.90
39033;DHT22;24794;51.982;5.878;2023-02-12T06:37:38;8.30;99.90
39033;DHT22;24794;51.982;5.878;2023-02-12T06:38:39;8.30;99.90
39033;DHT22;24794;51.982;5.878;2023-02-12T06:39:39;8.30;99.90
39033;DHT22;24794;51.982;5.878;2023-02-12T06:40:40;8.30;99.90
39033;DHT22;24794;51.982;5.878;2023-02-12T06:41:40;8.30;99.90
39033;DHT22;24794;51.982;5.878;2023-02-12T06:42:41;8.40;99.90
39033;DHT22;24794;51.982;5.878;2023-02-12T06:43:41;8.30;99.90
39033;DHT22;24794;51.982;5.878;2023-02-12T06:44:42;8.30;99.90
39033;DHT22;24794;51.982;5.878;2023-02-12T06:45:42;8.40;99.90
39033;DHT22;24794;51.982;5.878;2023-02-12T06:46:43;8.30;99.90
39033;DHT22;24794;51.982;5.878;2023-02-12T06:47:43;8.40;99.90
39033;DHT22;24794;51.982;5.878;2023-02-12T06:48:44;8.40;99.90
39033;DHT22;24794;51.982;5.878;2023-02-12T06:49:44;8.40;99.90
39033;DHT22;24794;51.982;5.878;2023-02-12T06:50:45;8.30;99.90
39033;DHT22;24794;51.982;5.878;2023-02-12T06:51:45;8.40;99.90
39033;DHT22;24794;51.982;5.878;2023-02-12T06:52:46;8.40;99.90
39033;DHT22;24794;51.982;5.878;2023-02-12T06:53:47;8.40;99.90
39033;DHT22;24794;51.982;5.878;2023-02-12T06:54:47;8.40;99.90
39033;DHT22;24794;51.982;5.878;2023-02-12T06:55:48;8.50;99.90
39033;DHT22;24794;51.982;5.878;2023-02-12T06:56:48;8.50;99.90
39033;DHT22;24794;51.982;5.878;2023-02-12T06:57:49;8.50;99.90
39033;DHT22;24794;51.982;5.878;2023-02-12T06:58:54;8.50;99.90
39033;DHT22;24794;51.982;5.878;2023-02-12T06:59:55;8.40;99.90
39033;DHT22;24794;51.982;5.878;2023-02-12T07:00:55;8.40;99.90
39033;DHT22;24794;51.982;5.878;2023-02-12T07:01:56;8.40;99.90
39033;DHT22;24794;51.982;5.878;2023-02-12T07:02:56;8.40;99.90
39033;DHT22;24794;51.982;5.878;2023-02-12T07:03:58;8.40;99.90
39033;DHT22;24794;51.982;5.878;2023-02-12T07:04:58;8.30;99.90
39033;DHT22;24794;51.982;5.878;2023-02-12T07:05:59;8.30;99.90
39033;DHT22;24794;51.982;5.878;2023-02-12T07:06:59;8.30;99.90
39033;DHT22;24794;51.982;5.878;2023-02-12T07:08:00;8.40;99.90
39033;DHT22;24794;51.982;5.878;2023-02-12T07:09:00;8.40;99.90
39033;DHT22;24794;51.982;5.878;2023-02-12T07:10:01;8.40;99.90
39033;DHT22;24794;51.982;5.878;2023-02-12T07:11:02;8.40;99.90
39033;DHT22;24794;51.982;5.878;2023-02-12T07:12:02;8.40;99.90
39033;DHT22;24794;51.982;5.878;2023-02-12T07:13:03;8.40;99.90
39033;DHT22;24794;51.982;5.878;2023-02-12T07:14:04;8.30;99.90
39033;DHT22;24794;51.982;5.878;2023-02-12T07:15:05;8.40;99.90
39033;DHT22;24794;51.982;5.878;2023-02-12T07:16:06;8.40;99.90
39033;DHT22;24794;51.982;5.878;2023-02-12T07:17:07;8.40;99.90
39033;DHT22;24794;51.982;5.878;2023-02-12T07:18:10;8.40;99.90
39033;DHT22;24794;51.982;5.878;2023-02-12T07:19:12;8.40;99.90
39033;DHT22;24794;51.982;5.878;2023-02-12T07:20:12;8.50;99.90
39033;DHT22;24794;51.982;5.878;2023-02-12T07:21:14;8.50;99.90
39033;DHT22;24794;51.982;5.878;2023-02-12T07:22:14;8.50;99.90
39033;DHT22;24794;51.982;5.878;2023-02-12T07:23:15;8.50;99.90
39033;DHT22;24794;51.982;5.878;2023-02-12T07:24:16;8.50;99.90
39033;DHT22;24794;51.982;5.878;2023-02-12T07:25:17;8.50;99.90
39033;DHT22;24794;51.982;5.878;2023-02-12T07:26:18;8.50;99.90
39033;DHT22;24794;51.982;5.878;2023-02-12T07:27:19;8.50;99.90
39033;DHT22;24794;51.982;5.878;2023-02-12T07:28:19;8.60;99.90